createdAt,value
2022-11-20T11:04:44.142Z,96125.75
2022-11-20T11:05:53.280Z,96130.53
2022-11-20T11:07:06.371Z,96126.00
2022-11-20T11:08:20.396Z,96130.38
2022-11-20T11:09:33.096Z,96132.13
2022-11-20T11:11:00.102Z,96122.13
2022-11-20T11:12:07.250Z,96125.06
2022-11-20T11:13:20.920Z,96111.66
2022-11-20T11:14:25.438Z,96106.16
2022-11-20T11:15:39.285Z,96119.47
2022-11-20T11:16:52.256Z,96108.03
2022-11-20T11:17:53.743Z,96111.41
2022-11-20T11:19:12.563Z,96092.34
2022-11-20T11:20:19.710Z,96105.56
2022-11-20T11:21:25.047Z,96111.88
2022-11-20T11:22:28.819Z,96095.34
2022-11-20T11:23:32.899Z,96105.53
2022-11-20T11:24:42.142Z,96093.75
2022-11-20T11:30:21.559Z,96095.38
2022-11-20T11:31:31.212Z,96080.31
2022-11-20T11:32:32.578Z,96097.97
2022-11-20T11:33:36.871Z,96079.66
2022-11-20T11:34:38.300Z,96102.38
2022-11-20T11:35:51.941Z,96078.19
2022-11-20T11:36:58.372Z,96086.31
2022-11-20T11:38:13.381Z,96074.69
2022-11-20T11:39:20.985Z,96074.81
2022-11-20T11:40:24.973Z,96060.13
2022-11-20T11:41:34.331Z,96073.75
2022-11-20T11:42:35.847Z,96060.06
2022-11-20T11:43:57.483Z,96067.41
2022-11-20T11:45:07.114Z,96069.38
2022-11-20T11:46:20.721Z,96075.19
2022-11-20T11:47:44.474Z,96068.28
2022-11-20T11:48:57.078Z,96066.09
2022-11-20T11:50:10.790Z,96070.03
2022-11-20T11:51:12.206Z,96060.84
2022-11-20T11:52:20.371Z,96064.56
2022-11-20T11:53:24.577Z,96045.69
2022-11-20T11:54:33.399Z,96041.72
2022-11-20T11:55:41.497Z,96045.88
2022-11-20T11:56:43.489Z,96042.22
2022-11-20T11:58:02.890Z,96034.50
2022-11-20T11:59:13.235Z,96059.00
2022-11-20T12:00:17.106Z,96040.88
2022-11-20T12:01:33.772Z,96058.47
2022-11-20T12:02:57.377Z,96052.91
2022-11-20T12:04:13.082Z,96055.41
2022-11-20T12:05:20.551Z,96063.38
2022-11-20T12:06:24.935Z,96049.47
2022-11-20T12:07:47.887Z,96059.06
2022-11-20T12:08:56.737Z,96055.63
2022-11-20T12:09:59.484Z,96060.94
2022-11-20T12:11:25.127Z,96055.66
2022-11-20T12:12:40.200Z,96061.06
2022-11-20T12:14:04.222Z,96053.72
2022-11-20T12:15:11.812Z,96051.31
2022-11-20T12:16:16.290Z,96055.31
2022-11-20T12:17:18.776Z,96035.53
2022-11-20T12:18:22.662Z,96057.53
2022-11-20T12:19:24.946Z,96055.41
2022-11-20T12:20:46.052Z,96036.25
2022-11-20T12:21:50.865Z,96052.19
2022-11-20T12:23:00.703Z,96050.94
2022-11-20T12:24:23.109Z,96052.72
2022-11-20T12:25:35.507Z,96040.59
2022-11-20T12:26:39.622Z,96045.28
2022-11-20T12:27:53.162Z,96053.56
2022-11-20T12:29:10.623Z,96037.84
2022-11-20T12:30:20.657Z,96042.69
2022-11-20T12:31:49.824Z,96041.75
2022-11-20T12:33:28.642Z,96037.19
2022-11-20T12:34:32.953Z,96034.34
2022-11-20T12:36:06.861Z,96042.22
2022-11-20T12:37:23.706Z,96039.53
2022-11-20T12:38:37.261Z,96040.31
2022-11-20T12:39:53.857Z,96029.44
2022-11-20T12:41:37.018Z,96035.69
2022-11-20T12:43:10.996Z,96043.91
2022-11-20T12:44:49.521Z,96040.47
2022-11-20T12:46:23.697Z,96047.22
2022-11-20T12:47:46.226Z,96041.00
2022-11-20T12:48:53.668Z,96037.69
2022-11-20T12:50:14.054Z,96043.06
2022-11-20T12:51:43.716Z,96030.13
2022-11-20T12:53:01.270Z,96039.59
2022-11-20T12:54:36.045Z,96048.31
2022-11-20T12:55:49.501Z,96055.78
2022-11-20T12:57:48.427Z,96049.69
2022-11-20T12:59:24.936Z,96036.56
2022-11-20T13:00:27.049Z,96029.84
2022-11-20T13:01:49.142Z,96040.31
2022-11-20T13:03:08.720Z,96027.63
2022-11-20T13:04:38.879Z,96032.97
2022-11-20T13:06:01.840Z,96033.88
2022-11-20T13:07:12.974Z,96029.72
2022-11-20T13:08:39.695Z,96030.28
2022-11-20T13:09:47.923Z,96045.47
2022-11-20T13:11:03.682Z,96029.31
2022-11-20T13:12:30.088Z,96039.19
2022-11-20T13:13:57.577Z,96034.84
2022-11-20T13:15:18.765Z,96042.63
2022-11-20T13:16:23.163Z,96037.47
2022-11-20T13:17:35.587Z,96032.44
2022-11-20T13:18:42.592Z,96037.00
2022-11-20T13:19:50.781Z,96032.63
2022-11-20T13:20:52.675Z,96016.72
2022-11-20T13:21:54.177Z,96018.38
2022-11-20T13:22:58.214Z,96038.34
2022-11-20T13:24:27.188Z,96014.97
2022-11-20T13:25:36.969Z,96023.47
2022-11-20T13:26:38.408Z,96022.38
2022-11-20T13:27:48.925Z,96026.19
2022-11-20T13:29:22.996Z,96030.22
2022-11-20T13:30:26.896Z,96025.31
2022-11-20T13:31:36.538Z,96027.84
2022-11-20T13:32:48.539Z,96025.16
2022-11-20T13:33:55.571Z,96025.09
2022-11-20T13:34:59.787Z,96027.00
2022-11-20T13:36:07.263Z,96028.72
2022-11-20T13:37:35.370Z,96020.19
2022-11-20T13:38:52.300Z,95997.47
2022-11-20T13:39:53.682Z,96026.25
2022-11-20T13:40:58.005Z,96023.53
2022-11-20T13:42:24.745Z,96029.56
2022-11-20T13:43:45.605Z,96013.06
2022-11-20T13:44:56.201Z,96012.03
2022-11-20T13:46:01.814Z,96015.06
2022-11-20T13:47:03.300Z,96015.13
2022-11-20T13:48:22.746Z,96017.47
2022-11-20T13:49:55.397Z,96023.75
2022-11-20T13:50:56.705Z,96021.06
2022-11-20T13:52:13.809Z,96024.91
2022-11-20T13:53:33.935Z,96018.84
2022-11-20T13:54:44.768Z,96011.53
2022-11-20T13:56:00.653Z,95994.94
2022-11-20T13:57:16.628Z,96010.31
2022-11-20T13:58:20.856Z,96011.50
2022-11-20T13:59:25.152Z,96010.91
2022-11-20T14:00:27.290Z,96012.63
2022-11-20T14:01:35.533Z,96012.97
2022-11-20T14:02:37.206Z,96007.47
2022-11-20T14:05:02.706Z,96001.75
2022-11-20T14:06:06.641Z,96001.50
2022-11-20T14:07:08.233Z,96000.63
2022-11-20T14:08:21.682Z,96003.28
2022-11-20T14:09:36.120Z,95997.53
2022-11-20T14:10:40.211Z,96003.47
2022-11-20T14:11:48.843Z,96002.69
2022-11-20T14:12:51.651Z,96006.78
2022-11-20T14:13:55.192Z,96007.81
2022-11-20T14:14:57.095Z,96001.91
2022-11-20T14:15:59.255Z,96002.91
2022-11-20T14:17:21.938Z,95997.91
2022-11-20T14:18:23.371Z,95988.84
2022-11-20T14:19:29.335Z,95995.38
2022-11-20T14:20:32.253Z,95996.25
2022-11-20T14:21:33.687Z,95983.38
2022-11-20T14:22:35.232Z,95994.50
2022-11-20T14:23:36.700Z,95993.13
2022-11-20T14:24:38.244Z,95998.69
2022-11-20T14:25:47.695Z,96002.91
2022-11-20T14:26:49.267Z,95993.06
2022-11-20T14:27:57.224Z,95988.84
2022-11-20T14:28:59.211Z,95976.41
2022-11-20T14:30:02.243Z,95988.13
2022-11-20T14:31:03.673Z,95996.69
2022-11-20T14:32:05.812Z,95978.13
2022-11-20T14:33:07.260Z,95994.03
2022-11-20T14:34:18.126Z,95990.28
2022-11-20T14:35:26.433Z,95985.34
2022-11-20T14:36:32.067Z,95999.81
2022-11-20T14:37:37.683Z,95983.28
2022-11-20T14:38:39.424Z,95994.78
2022-11-20T14:39:50.262Z,95990.72
2022-11-20T14:40:51.760Z,95981.50
2022-11-20T14:41:54.380Z,95976.41
2022-11-20T14:42:56.853Z,95945.06
2022-11-20T14:44:00.019Z,95987.53
2022-11-20T14:45:02.146Z,95969.38
2022-11-20T14:46:06.607Z,95972.03
2022-11-20T14:47:13.772Z,95979.00
2022-11-20T14:48:16.580Z,95952.75
2022-11-20T14:49:18.285Z,95968.16
2022-11-20T14:50:23.804Z,95976.06
2022-11-20T14:51:34.316Z,95966.03
2022-11-20T14:52:35.664Z,95972.19
2022-11-20T14:53:37.139Z,95959.22
2022-11-20T14:54:46.863Z,95964.28
2022-11-20T14:56:00.283Z,95952.06
2022-11-20T14:57:04.472Z,95936.88
2022-11-20T14:58:23.628Z,95954.00
2022-11-20T14:59:33.280Z,95938.22
2022-11-20T15:00:36.238Z,95948.63
2022-11-20T15:01:38.507Z,95950.28
2022-11-20T15:02:42.798Z,95957.34
2022-11-20T15:03:44.292Z,95949.91
2022-11-20T15:05:00.147Z,95948.31
2022-11-20T15:06:02.383Z,95943.28
2022-11-20T15:07:03.925Z,95916.25
2022-11-20T15:08:10.081Z,95942.63
2022-11-20T15:09:15.652Z,95939.13
2022-11-20T15:10:19.777Z,95937.63
2022-11-20T15:11:32.063Z,95936.72
2022-11-20T15:12:36.830Z,95934.28
2022-11-20T15:13:39.927Z,95930.97
2022-11-20T15:14:41.283Z,95934.56
2022-11-20T15:15:52.998Z,95931.16
2022-11-20T15:16:55.212Z,95926.31
2022-11-20T15:17:56.827Z,95895.88
2022-11-20T15:18:58.345Z,95933.97
2022-11-20T15:20:02.190Z,95927.28
2022-11-20T15:21:07.309Z,95943.63
2022-11-20T15:22:19.900Z,95936.13
2022-11-20T15:23:21.325Z,95942.00
2022-11-20T15:24:26.218Z,95939.59
2022-11-20T15:25:29.067Z,95899.06
2022-11-20T15:26:30.608Z,95937.94
2022-11-20T15:27:32.041Z,95945.72
2022-11-20T15:28:51.018Z,95938.03
2022-11-20T15:29:52.628Z,95937.22
